createdAt,value
2023-04-03T00:03:55.282Z,1.17
2023-04-03T00:08:54.447Z,1.30
2023-04-03T00:13:54.962Z,1.00
2023-04-03T00:18:53.370Z,1.02
2023-04-03T00:23:51.542Z,1.38
2023-04-03T00:28:50.928Z,1.00
2023-04-03T00:33:49.297Z,1.23
2023-04-03T00:38:48.142Z,0.93
2023-04-03T00:43:49.619Z,1.00
2023-04-03T00:48:51.968Z,0.90
2023-04-03T00:53:53.403Z,1.08
2023-04-03T00:59:00.920Z,1.00
2023-04-03T01:04:01.474Z,1.50
2023-04-03T01:09:02.474Z,1.20
2023-04-03T01:14:04.656Z,1.08
2023-04-03T01:19:04.581Z,1.20
2023-04-03T01:24:05.827Z,1.10
2023-04-03T01:29:04.685Z,1.55
2023-04-03T01:34:05.683Z,1.35
2023-04-03T01:39:04.908Z,1.10
2023-04-03T01:44:05.122Z,1.90
2023-04-03T01:49:03.789Z,2.13
2023-04-03T01:54:02.396Z,2.15
2023-04-03T01:59:01.200Z,1.90
2023-04-03T02:04:01.034Z,1.80
2023-04-03T02:08:59.781Z,1.58
2023-04-03T02:13:58.617Z,2.13
2023-04-03T02:18:59.589Z,1.30
2023-04-03T02:23:57.994Z,2.05
2023-04-03T02:28:56.259Z,1.90
2023-04-03T02:33:57.469Z,2.13
2023-04-03T02:38:57.894Z,2.58
2023-04-03T02:43:59.216Z,4.10
2023-04-03T02:48:59.507Z,4.88
2023-04-03T02:53:57.704Z,6.05
2023-04-03T02:59:03.324Z,4.53
2023-04-03T03:04:04.413Z,3.72
2023-04-03T03:09:07.900Z,3.30
2023-04-03T03:14:06.531Z,4.15
2023-04-03T03:19:05.864Z,4.22
2023-04-03T03:24:05.010Z,3.78
2023-04-03T03:29:05.522Z,7.00
2023-04-03T03:34:08.837Z,3.75
2023-04-03T03:39:08.452Z,2.45
2023-04-03T03:44:07.436Z,4.10
2023-04-03T03:49:09.941Z,3.10
2023-04-03T03:54:08.936Z,2.08
2023-04-03T03:59:09.210Z,2.20
2023-04-03T04:04:13.468Z,2.30
2023-04-03T04:09:13.086Z,2.50
2023-04-03T04:14:14.672Z,3.00
2023-04-03T04:19:14.873Z,2.90
2023-04-03T04:24:16.890Z,3.08
2023-04-03T04:29:18.528Z,3.50
2023-04-03T04:34:21.509Z,3.10
2023-04-03T04:39:20.794Z,2.92
2023-04-03T04:44:20.262Z,3.38
2023-04-03T04:49:19.273Z,4.53
2023-04-03T04:54:20.997Z,4.40
2023-04-03T04:59:22.255Z,3.78
2023-04-03T05:04:26.233Z,4.13
2023-04-03T05:09:31.183Z,4.13
2023-04-03T05:14:30.506Z,4.30
2023-04-03T05:19:34.496Z,4.60
2023-04-03T05:24:34.873Z,4.57
2023-04-03T05:29:34.633Z,4.93
2023-04-03T05:34:34.731Z,4.75
2023-04-03T05:39:36.014Z,7.50
2023-04-03T05:44:36.630Z,7.22
2023-04-03T05:49:34.962Z,6.70
2023-04-03T05:54:33.751Z,8.25
2023-04-03T05:59:47.901Z,8.10
2023-04-03T06:04:50.443Z,6.88
2023-04-03T06:09:50.800Z,7.72
2023-04-03T06:14:49.679Z,7.75
2023-04-03T06:19:53.593Z,6.25
2023-04-03T06:24:55.146Z,6.85
2023-04-03T06:29:55.984Z,6.93
2023-04-03T06:34:54.706Z,6.10
2023-04-03T06:39:53.322Z,6.15
2023-04-03T06:44:53.181Z,5.70
2023-04-03T06:49:51.489Z,6.03
2023-04-03T06:54:51.746Z,4.55
2023-04-03T06:59:51.398Z,3.35
2023-04-03T07:04:49.609Z,3.63
2023-04-03T07:09:49.087Z,2.50
2023-04-03T07:14:47.197Z,3.08
2023-04-03T07:19:46.012Z,3.95
2023-04-03T07:25:08.728Z,2.40
2023-04-03T07:30:08.299Z,1.88
2023-04-03T07:35:06.635Z,2.13
2023-04-03T07:40:11.428Z,2.38
2023-04-03T07:45:10.411Z,2.40
2023-04-03T07:50:10.195Z,2.53
2023-04-03T07:55:09.537Z,2.28
2023-04-03T08:00:10.124Z,2.78
2023-04-03T08:05:10.326Z,2.90
2023-04-03T08:10:12.150Z,3.47
2023-04-03T08:15:11.025Z,4.97
2023-04-03T08:20:09.522Z,3.50
2023-04-03T08:25:08.215Z,3.95
2023-04-03T08:30:07.718Z,3.28
2023-04-03T08:35:06.526Z,3.10
2023-04-03T08:40:12.493Z,3.30
2023-04-03T08:45:17.261Z,3.63
2023-04-03T08:50:18.918Z,3.38
2023-04-03T08:55:30.104Z,3.72
2023-04-03T09:00:36.287Z,3.43
2023-04-03T09:05:40.498Z,3.70
2023-04-03T09:10:40.146Z,2.92
2023-04-03T09:15:39.460Z,3.40
2023-04-03T09:20:57.655Z,2.80
2023-04-03T09:26:09.354Z,2.42
2023-04-03T09:31:23.264Z,3.50
2023-04-03T09:42:03.420Z,10.13
2023-04-03T09:47:30.805Z,3.30
2023-04-03T09:52:30.082Z,2.92
2023-04-03T09:57:34.136Z,3.75
2023-04-03T10:02:40.623Z,2.80
2023-04-03T10:07:40.213Z,3.40
2023-04-03T10:12:39.484Z,2.85
2023-04-03T10:18:04.465Z,2.20
2023-04-03T10:23:26.379Z,2.25
2023-04-03T10:28:57.134Z,2.42
2023-04-03T10:34:12.568Z,2.17
2023-04-03T10:39:32.003Z,1.83
2023-04-03T10:45:13.625Z,2.13
2023-04-03T10:50:54.655Z,2.15
2023-04-03T10:56:24.495Z,2.40
2023-04-03T11:01:27.269Z,1.58
2023-04-03T11:06:28.350Z,1.60
2023-04-03T11:11:32.083Z,1.83
2023-04-03T11:16:43.541Z,4.18
2023-04-03T11:21:54.277Z,1.95
2023-04-03T11:26:53.457Z,1.40
2023-04-03T11:32:30.959Z,1.50
2023-04-03T11:37:42.494Z,2.13
2023-04-03T11:42:46.901Z,1.65
2023-04-03T11:47:57.566Z,1.73
2023-04-03T11:53:04.924Z,1.23
2023-04-03T11:58:16.325Z,1.05
2023-04-03T12:03:34.259Z,2.05
2023-04-03T12:08:47.383Z,1.00
2023-04-03T12:14:05.996Z,1.77
2023-04-03T12:19:24.211Z,2.00
2023-04-03T12:24:43.535Z,1.48
2023-04-03T12:29:56.065Z,1.60
2023-04-03T12:35:05.249Z,1.40
2023-04-03T12:40:14.605Z,2.08
2023-04-03T12:45:16.728Z,2.15
2023-04-03T12:50:44.669Z,2.55
2023-04-03T12:55:56.326Z,2.13
2023-04-03T13:01:07.982Z,2.20
2023-04-03T13:06:13.554Z,2.58
2023-04-03T13:11:20.928Z,2.20
2023-04-03T13:16:25.320Z,2.00
2023-04-03T13:21:34.718Z,2.40
2023-04-03T13:26:55.385Z,3.30
2023-04-03T13:31:58.089Z,2.80
2023-04-03T13:36:58.409Z,3.47
2023-04-03T13:42:03.925Z,5.20
2023-04-03T13:47:17.448Z,2.90
2023-04-03T13:52:26.072Z,3.20
2023-04-03T13:57:25.085Z,2.92
2023-04-03T14:02:34.876Z,3.80
2023-04-03T14:07:35.295Z,3.97
2023-04-03T14:12:37.426Z,4.18
2023-04-03T14:17:36.208Z,3.95
2023-04-03T14:22:35.940Z,4.13
2023-04-03T14:27:46.028Z,4.00
2023-04-03T14:32:45.017Z,4.07
2023-04-03T14:37:43.457Z,4.40
2023-04-03T14:42:44.571Z,4.43
2023-04-03T14:47:52.959Z,4.03
2023-04-03T14:52:55.738Z,3.75
2023-04-03T14:57:54.387Z,3.67
2023-04-03T15:02:52.846Z,3.97
2023-04-03T15:07:58.267Z,4.32
2023-04-03T15:12:56.839Z,4.50
2023-04-03T15:17:59.109Z,4.90
2023-04-03T15:22:59.143Z,5.25
2023-04-03T15:27:59.632Z,4.80
2023-04-03T15:32:58.974Z,5.32
2023-04-03T15:37:59.653Z,5.85
2023-04-03T15:43:00.585Z,5.95
2023-04-03T15:47:59.185Z,6.00
2023-04-03T15:52:59.045Z,6.07
2023-04-03T15:57:58.130Z,6.70
2023-04-03T16:02:59.731Z,6.85
2023-04-03T16:07:59.018Z,6.75
2023-04-03T16:12:57.057Z,7.13
2023-04-03T16:17:55.287Z,6.93
2023-04-03T16:22:54.075Z,7.28
2023-04-03T16:27:52.775Z,6.95
2023-04-03T16:32:50.642Z,6.70
2023-04-03T16:37:50.370Z,7.38
2023-04-03T16:42:49.923Z,7.40
2023-04-03T16:47:49.984Z,6.68
2023-04-03T16:52:48.766Z,7.05
2023-04-03T16:57:47.265Z,7.82
2023-04-03T17:02:46.032Z,7.80
2023-04-03T17:07:45.344Z,7.93
2023-04-03T17:12:45.296Z,7.68
2023-04-03T17:17:46.107Z,7.53
2023-04-03T17:22:45.560Z,7.38
2023-04-03T17:27:44.163Z,9.48
2023-04-03T17:32:44.710Z,7.50
2023-04-03T17:37:44.028Z,7.13
2023-04-03T17:42:42.548Z,5.88
2023-04-03T17:47:45.927Z,5.38
2023-04-03T17:52:47.948Z,5.38
2023-04-03T17:57:47.094Z,2.75
2023-04-03T18:02:52.307Z,2.40
2023-04-03T18:07:53.838Z,4.20
2023-04-03T18:12:53.453Z,6.95
2023-04-03T18:17:57.060Z,8.73
2023-04-03T18:22:55.034Z,8.27
2023-04-03T18:27:53.580Z,7.13
2023-04-03T18:32:52.449Z,7.82
2023-04-03T18:37:54.221Z,8.43
2023-04-03T18:42:52.125Z,6.93
2023-04-03T18:47:50.532Z,7.10
2023-04-03T18:53:04.728Z,6.00
2023-04-03T18:58:14.609Z,7.25
2023-04-03T19:03:16.496Z,6.15
2023-04-03T19:08:19.385Z,5.70
2023-04-03T19:13:31.049Z,5.32
2023-04-03T19:18:31.558Z,4.37
2023-04-03T19:23:32.495Z,4.65
2023-04-03T19:28:30.929Z,5.53
2023-04-03T19:33:59.663Z,7.05
2023-04-03T19:39:04.136Z,9.05
2023-04-03T19:44:02.410Z,6.78
2023-04-03T19:49:00.962Z,10.07
2023-04-03T19:54:03.010Z,12.13
2023-04-03T19:59:04.113Z,13.18
2023-04-03T20:04:03.547Z,15.30
2023-04-03T20:09:03.929Z,24.25
2023-04-03T20:14:07.373Z,12.27
2023-04-03T20:19:07.360Z,10.57
2023-04-03T20:24:09.300Z,9.98
2023-04-03T20:29:09.977Z,8.98
2023-04-03T20:34:11.125Z,9.40
2023-04-03T20:39:08.876Z,9.23
2023-04-03T20:44:07.634Z,8.65
2023-04-03T20:49:06.765Z,9.75
2023-04-03T20:54:07.364Z,11.07
2023-04-03T20:59:05.923Z,12.40
2023-04-03T21:04:10.815Z,12.88
2023-04-03T21:09:47.354Z,12.95
2023-04-03T21:15:23.512Z,13.13
2023-04-03T21:20:22.067Z,15.15
2023-04-03T21:25:24.076Z,15.40
2023-04-03T21:30:28.051Z,15.88
2023-04-03T21:35:27.989Z,15.35
2023-04-03T21:40:27.032Z,15.00
2023-04-03T21:45:28.986Z,14.77
2023-04-03T21:50:28.821Z,14.35
2023-04-03T21:55:28.893Z,15.48
2023-04-03T22:00:32.903Z,7.75
2023-04-03T22:05:33.624Z,4.68
2023-04-03T22:10:33.903Z,3.60
2023-04-03T22:15:33.857Z,4.20
2023-04-03T22:20:33.803Z,3.90
2023-04-03T22:25:34.230Z,3.78
2023-04-03T22:30:32.259Z,3.88
2023-04-03T22:35:31.815Z,3.78
2023-04-03T22:40:29.809Z,3.50
2023-04-03T22:45:31.622Z,6.00
2023-04-03T22:50:31.080Z,4.68
2023-04-03T22:55:34.864Z,4.65
2023-04-03T23:05:38.175Z,3.53
2023-04-03T23:10:37.350Z,4.32
2023-04-03T23:15:35.900Z,4.28
2023-04-03T23:20:34.328Z,3.65
2023-04-03T23:25:33.845Z,3.65
2023-04-03T23:30:32.742Z,4.60
2023-04-03T23:35:30.694Z,4.05
2023-04-03T23:40:29.430Z,4.20
2023-04-03T23:45:27.203Z,4.20
2023-04-03T23:50:26.577Z,4.47
2023-04-03T23:55:26.546Z,3.95
